Orlando, Florida
Traffic Map
Current Weather Conditions
Orlando, Florida
Clear
Clear
74°
Feels Like: 74°
Wind Chill: 74° Ceiling: Unl
Heat Index: 74° Visibility: 10mi
Dew Point: 71° Wind: 0mph
Humidity: 91% Direction: ° ()
Pressure: 29.95in Gusts: 0mph
Raw Report DataKORL 220453Z AUTO 00000KT 10SM CLR 23/22 A2995 RMK AO2 SLP143 T02330217 403000217
Traffic Incident Summary
Active as of:
Severity:
Category:
InformationThere was an issue retrieving the traffic information for this location. Please try a different location or try again shortly.
Advertisements
Track Severe Weather on mobile